createdAt,value
2023-04-17T00:04:14.667Z,102404.16
2023-04-17T00:09:16.278Z,102409.75
2023-04-17T00:14:17.748Z,102399.72
2023-04-17T00:19:19.205Z,102419.00
2023-04-17T00:24:20.665Z,102407.25
2023-04-17T00:29:22.127Z,102404.59
2023-04-17T00:34:23.615Z,102410.41
2023-04-17T00:39:25.581Z,102405.56
2023-04-17T00:44:27.689Z,102410.81
2023-04-17T00:49:29.891Z,102405.19
2023-04-17T00:54:32.228Z,102392.56
2023-04-17T00:59:35.707Z,102390.34
2023-04-17T01:04:37.321Z,102393.25
2023-04-17T01:09:38.855Z,102400.56
2023-04-17T01:14:40.323Z,102397.19
2023-04-17T01:19:42.066Z,102397.47
2023-04-17T01:24:43.824Z,102400.09
2023-04-17T01:29:45.758Z,102408.59
2023-04-17T01:34:47.247Z,102398.97
2023-04-17T01:39:48.807Z,102408.09
2023-04-17T01:44:50.484Z,102412.72
2023-04-17T01:49:51.928Z,102411.72
2023-04-17T01:54:53.379Z,102418.88
2023-04-17T01:59:54.844Z,102422.97
2023-04-17T02:04:56.308Z,102424.03
2023-04-17T02:09:57.786Z,102429.38
2023-04-17T02:15:01.263Z,102407.91
2023-04-17T02:20:06.777Z,102429.78
2023-04-17T02:25:08.445Z,102419.03
2023-04-17T02:30:10.416Z,102419.88
2023-04-17T02:35:11.918Z,102411.31
2023-04-17T02:40:14.457Z,102409.66
2023-04-17T02:45:16.069Z,102407.75
2023-04-17T02:50:17.581Z,102419.09
2023-04-17T02:55:35.982Z,102417.19
2023-04-17T03:00:39.366Z,102416.06
2023-04-17T03:05:42.901Z,102415.53
2023-04-17T03:10:44.529Z,102428.47
2023-04-17T03:15:46.160Z,102428.16
2023-04-17T03:20:47.665Z,102423.47
2023-04-17T03:25:49.871Z,102429.00
2023-04-17T03:30:52.181Z,102428.47
2023-04-17T03:35:53.738Z,102415.28
2023-04-17T03:40:55.387Z,102418.75
2023-04-17T03:45:59.472Z,102411.31
2023-04-17T03:51:01.044Z,102409.53
2023-04-17T03:56:04.386Z,102417.50
2023-04-17T04:01:12.591Z,102415.72
2023-04-17T04:06:24.617Z,102412.03
2023-04-17T04:11:26.278Z,102412.28
2023-04-17T04:16:28.990Z,102423.22
2023-04-17T04:21:39.514Z,102421.03
2023-04-17T04:26:47.340Z,102413.75
2023-04-17T04:31:51.046Z,102416.78
2023-04-17T04:36:56.646Z,102417.97
2023-04-17T04:42:10.653Z,102423.09
2023-04-17T04:47:26.808Z,102424.38
2023-04-17T04:52:29.273Z,102432.25
2023-04-17T04:57:34.520Z,102436.84
2023-04-17T05:02:37.590Z,102444.41
2023-04-17T05:07:41.326Z,102448.97
2023-04-17T05:12:46.376Z,102449.47
2023-04-17T05:17:49.156Z,102457.63
2023-04-17T05:22:50.977Z,102465.28
2023-04-17T05:27:52.480Z,102473.22
2023-04-17T05:32:54.429Z,102478.25
2023-04-17T05:38:04.811Z,102485.91
2023-04-17T05:43:09.234Z,102488.31
2023-04-17T05:48:11.505Z,102489.91
2023-04-17T05:53:12.986Z,102499.31
2023-04-17T05:58:24.510Z,102506.44
2023-04-17T06:03:29.910Z,102505.88
2023-04-17T06:08:38.986Z,102505.06
2023-04-17T06:13:40.527Z,102508.44
2023-04-17T06:18:43.002Z,102517.44
2023-04-17T06:23:44.539Z,102516.56
2023-04-17T06:28:45.996Z,102523.53
2023-04-17T06:33:50.080Z,102525.50
2023-04-17T06:38:54.500Z,102521.47
2023-04-17T06:43:57.315Z,102522.47
2023-04-17T06:48:59.613Z,102539.41
2023-04-17T06:54:03.335Z,102537.13
2023-04-17T06:59:04.824Z,102541.56
2023-04-17T07:04:08.304Z,102551.25
2023-04-17T07:09:09.989Z,102542.28
2023-04-17T07:14:12.896Z,102552.97
2023-04-17T07:19:14.746Z,102557.59
2023-04-17T07:24:16.368Z,102550.50
2023-04-17T07:29:17.882Z,102569.66
2023-04-17T07:34:19.524Z,102576.75
2023-04-17T07:39:21.087Z,102591.00
2023-04-17T07:44:22.548Z,102598.75
2023-04-17T07:49:24.009Z,102590.81
2023-04-17T07:54:25.601Z,102596.25
2023-04-17T07:59:27.072Z,102606.13
2023-04-17T08:04:28.706Z,102609.44
2023-04-17T08:09:30.426Z,102626.47
2023-04-17T08:14:32.356Z,102628.00
2023-04-17T08:19:33.836Z,102630.81
2023-04-17T08:24:35.304Z,102652.25
2023-04-17T08:29:37.679Z,102649.72
2023-04-17T08:34:39.137Z,102660.84
2023-04-17T08:39:40.892Z,102657.69
2023-04-17T08:44:42.375Z,102672.59
2023-04-17T08:49:45.886Z,102673.47
2023-04-17T08:54:51.039Z,102685.72
2023-04-17T08:59:52.872Z,102689.53
2023-04-17T09:04:54.465Z,102684.97
2023-04-17T09:09:57.108Z,102691.16
2023-04-17T09:14:58.684Z,102699.91
2023-04-17T09:20:11.785Z,102713.38
2023-04-17T09:25:20.749Z,102710.09
2023-04-17T09:30:25.125Z,102710.31
2023-04-17T09:35:26.654Z,102722.59
2023-04-17T09:40:37.145Z,102740.19
2023-04-17T09:45:41.604Z,102733.56
2023-04-17T09:50:44.273Z,102728.09
2023-04-17T09:55:45.904Z,102741.69
2023-04-17T10:00:48.132Z,102736.28
2023-04-17T10:05:49.895Z,102736.09
2023-04-17T10:10:52.313Z,102733.28
2023-04-17T10:15:53.945Z,102736.84
2023-04-17T10:20:55.774Z,102724.53
2023-04-17T10:26:25.354Z,102730.16
2023-04-17T10:32:16.391Z,102730.22
2023-04-17T10:37:18.933Z,102732.38
2023-04-17T10:42:22.559Z,102730.00
2023-04-17T10:47:31.496Z,102717.16
2023-04-17T10:52:33.124Z,102723.19
2023-04-17T10:57:52.040Z,102721.75
2023-04-17T11:02:53.834Z,102722.44
2023-04-17T11:07:55.536Z,102711.56
2023-04-17T11:12:57.021Z,102707.16
2023-04-17T11:17:59.528Z,102710.69
2023-04-17T11:23:02.448Z,102704.97
2023-04-17T11:28:06.138Z,102702.44
2023-04-17T11:33:08.735Z,102711.16
2023-04-17T11:38:18.989Z,102700.91
2023-04-17T11:43:22.558Z,102708.16
2023-04-17T11:48:26.321Z,102702.53
2023-04-17T11:53:27.898Z,102709.50
2023-04-17T11:58:30.374Z,102708.88
2023-04-17T12:03:36.041Z,102702.44
2023-04-17T12:08:52.180Z,102707.28
2023-04-17T12:13:55.279Z,102715.91
2023-04-17T12:18:57.193Z,102709.53
2023-04-17T12:23:58.649Z,102716.03
2023-04-17T12:29:00.245Z,102709.25
2023-04-17T12:34:01.741Z,102704.47
2023-04-17T12:39:03.758Z,102709.13
2023-04-17T12:44:05.754Z,102703.75
2023-04-17T12:49:07.427Z,102705.94
2023-04-17T12:54:08.938Z,102704.59
2023-04-17T12:59:10.835Z,102698.53
2023-04-17T13:04:13.374Z,102704.34
2023-04-17T13:09:16.992Z,102700.19
2023-04-17T13:14:18.507Z,102699.69
2023-04-17T13:19:20.116Z,102691.69
2023-04-17T13:24:21.760Z,102691.09
2023-04-17T13:29:23.487Z,102679.19
2023-04-17T13:34:24.989Z,102682.56
2023-04-17T13:39:26.867Z,102666.66
2023-04-17T13:44:28.450Z,102652.66
2023-04-17T13:49:29.940Z,102647.38
2023-04-17T13:54:31.588Z,102643.59
2023-04-17T13:59:33.050Z,102630.91
2023-04-17T14:04:34.691Z,102627.09
2023-04-17T14:09:36.249Z,102627.00
2023-04-17T14:14:37.707Z,102618.16
2023-04-17T14:19:39.175Z,102617.84
2023-04-17T14:24:40.626Z,102612.66
2023-04-17T14:29:42.076Z,102611.03
2023-04-17T14:34:43.559Z,102608.75
2023-04-17T14:39:45.022Z,102603.22
2023-04-17T14:44:47.070Z,102597.34
2023-04-17T14:49:48.545Z,102594.13
2023-04-17T14:54:50.008Z,102594.91
2023-04-17T14:59:51.928Z,102588.28
2023-04-17T15:04:53.355Z,102581.47
2023-04-17T15:09:56.313Z,102580.63
2023-04-17T15:14:57.899Z,102582.47
2023-04-17T15:20:00.728Z,102564.28
2023-04-17T15:25:02.210Z,102563.56
2023-04-17T15:30:06.589Z,102569.19
2023-04-17T15:35:08.453Z,102571.38
2023-04-17T15:40:10.248Z,102571.22
2023-04-17T15:45:11.885Z,102568.47
2023-04-17T15:50:13.634Z,102566.41
2023-04-17T15:55:15.379Z,102563.59
2023-04-17T16:00:17.253Z,102563.50
2023-04-17T16:05:19.068Z,102558.22
2023-04-17T16:10:20.715Z,102547.28
2023-04-17T16:15:22.256Z,102549.06
2023-04-17T16:20:23.787Z,102554.84
2023-04-17T16:25:25.349Z,102553.28
2023-04-17T16:30:27.024Z,102550.81
2023-04-17T16:35:29.967Z,102546.31
2023-04-17T16:40:31.456Z,102548.81
2023-04-17T16:45:32.961Z,102546.09
2023-04-17T16:50:34.445Z,102546.66
2023-04-17T16:55:36.486Z,102556.28
2023-04-17T17:00:38.044Z,102539.78
2023-04-17T17:05:39.602Z,102555.44
2023-04-17T17:10:41.218Z,102546.69
2023-04-17T17:15:42.664Z,102550.34
2023-04-17T17:20:44.120Z,102550.28
2023-04-17T17:25:45.575Z,102544.25
2023-04-17T17:30:48.042Z,102554.78
2023-04-17T17:35:49.515Z,102549.91
2023-04-17T17:40:52.084Z,102540.63
2023-04-17T17:45:53.731Z,102547.19
2023-04-17T17:50:57.077Z,102550.47
2023-04-17T17:55:58.595Z,102555.34
2023-04-17T18:01:00.022Z,102557.28
2023-04-17T18:06:01.500Z,102552.13
2023-04-17T18:11:03.021Z,102557.50
2023-04-17T18:16:04.775Z,102558.69
2023-04-17T18:21:07.113Z,102561.47
2023-04-17T18:26:08.595Z,102567.81
2023-04-17T18:31:10.655Z,102575.44
2023-04-17T18:36:12.191Z,102583.69
2023-04-17T18:41:13.650Z,102584.38
2023-04-17T18:46:15.147Z,102585.53
2023-04-17T18:51:17.445Z,102587.91
2023-04-17T18:56:18.975Z,102588.84
2023-04-17T19:01:20.559Z,102594.94
2023-04-17T19:06:22.264Z,102603.97
2023-04-17T19:11:24.159Z,102596.19
2023-04-17T19:16:25.728Z,102604.72
2023-04-17T19:21:28.254Z,102606.94
2023-04-17T19:26:29.764Z,102605.72
2023-04-17T19:31:31.996Z,102618.25
2023-04-17T19:36:33.477Z,102617.50
2023-04-17T19:41:34.932Z,102621.50
2023-04-17T19:46:36.438Z,102610.03
2023-04-17T19:51:38.552Z,102622.91
2023-04-17T19:56:40.009Z,102632.44
2023-04-17T20:01:43.583Z,102626.03
2023-04-17T20:06:45.558Z,102630.00
2023-04-17T20:11:47.021Z,102629.69
2023-04-17T20:16:50.024Z,102634.97
2023-04-17T20:21:51.546Z,102631.25
2023-04-17T20:26:53.196Z,102643.81
2023-04-17T20:31:54.875Z,102645.84
2023-04-17T20:36:56.350Z,102643.38
2023-04-17T20:41:57.824Z,102639.19
2023-04-17T20:46:59.267Z,102625.28
2023-04-17T20:52:02.071Z,102623.31
2023-04-17T20:57:03.633Z,102635.81
2023-04-17T21:02:05.369Z,102630.44
2023-04-17T21:07:07.067Z,102635.78
2023-04-17T21:12:08.637Z,102632.56
2023-04-17T21:17:10.118Z,102639.50
2023-04-17T21:22:12.912Z,102638.38
2023-04-17T21:27:15.464Z,102644.63
2023-04-17T21:32:16.920Z,102641.91
2023-04-17T21:37:18.386Z,102651.09
2023-04-17T21:42:19.887Z,102656.84
2023-04-17T21:47:21.376Z,102660.53
2023-04-17T21:52:22.868Z,102669.75
2023-04-17T21:57:24.359Z,102673.38
2023-04-17T22:02:25.941Z,102668.47
2023-04-17T22:07:27.457Z,102683.28
2023-04-17T22:12:29.105Z,102687.97
2023-04-17T22:17:31.214Z,102683.41
2023-04-17T22:22:32.677Z,102687.41
2023-04-17T22:27:34.163Z,102688.53
2023-04-17T22:32:36.085Z,102686.22
2023-04-17T22:37:37.656Z,102683.94
2023-04-17T22:42:39.119Z,102686.94
2023-04-17T22:47:41.183Z,102693.53
2023-04-17T22:52:42.676Z,102694.69
2023-04-17T22:57:44.565Z,102690.44
2023-04-17T23:02:47.064Z,102690.34
2023-04-17T23:07:48.672Z,102688.03
2023-04-17T23:12:50.125Z,102685.38
2023-04-17T23:17:51.589Z,102691.25
2023-04-17T23:22:53.254Z,102693.25
2023-04-17T23:27:54.719Z,102691.34
2023-04-17T23:32:56.205Z,102702.09
2023-04-17T23:37:57.657Z,102706.88
2023-04-17T23:42:59.151Z,102704.72
2023-04-17T23:48:00.741Z,102697.44
2023-04-17T23:53:02.341Z,102698.53
2023-04-17T23:58:03.824Z,102708.28
